sensor_id;sensor_type;location;lat;lon;timestamp;pressure;altitude;pressure_sealevel;temperature;humidity
29839;BME280;18669;53.356;-1.464;2022-12-19T00:03:55;99227.25;;;8.14;100.00
29839;BME280;18669;53.356;-1.464;2022-12-19T00:06:22;99217.91;;;8.07;100.00
29839;BME280;18669;53.356;-1.464;2022-12-19T00:08:50;99224.97;;;8.05;100.00
29839;BME280;18669;53.356;-1.464;2022-12-19T00:11:18;99197.81;;;8.07;100.00
29839;BME280;18669;53.356;-1.464;2022-12-19T00:13:45;99209.78;;;8.15;100.00
29839;BME280;18669;53.356;-1.464;2022-12-19T00:16:18;99206.28;;;8.41;100.00
29839;BME280;18669;53.356;-1.464;2022-12-19T00:18:46;99197.72;;;8.36;100.00
29839;BME280;18669;53.356;-1.464;2022-12-19T00:21:17;99195.16;;;8.34;100.00
29839;BME280;18669;53.356;-1.464;2022-12-19T00:23:45;99196.06;;;8.33;100.00
29839;BME280;18669;53.356;-1.464;2022-12-19T00:26:24;99188.84;;;8.40;100.00
29839;BME280;18669;53.356;-1.464;2022-12-19T00:28:56;99183.28;;;8.49;100.00
29839;BME280;18669;53.356;-1.464;2022-12-19T00:31:23;99164.50;;;8.36;100.00
29839;BME280;18669;53.356;-1.464;2022-12-19T00:33:50;99187.25;;;8.36;100.00
29839;BME280;18669;53.356;-1.464;2022-12-19T00:36:20;99189.75;;;8.39;100.00
29839;BME280;18669;53.356;-1.464;2022-12-19T00:38:47;99181.78;;;8.42;100.00
29839;BME280;18669;53.356;-1.464;2022-12-19T00:41:22;99185.91;;;8.49;100.00
29839;BME280;18669;53.356;-1.464;2022-12-19T00:43:56;99183.50;;;8.43;100.00
29839;BME280;18669;53.356;-1.464;2022-12-19T00:46:22;99177.50;;;8.40;100.00
29839;BME280;18669;53.356;-1.464;2022-12-19T00:48:49;99165.41;;;8.35;100.00
29839;BME280;18669;53.356;-1.464;2022-12-19T00:51:17;99174.28;;;8.31;100.00
29839;BME280;18669;53.356;-1.464;2022-12-19T00:53:45;99170.63;;;8.37;100.00
29839;BME280;18669;53.356;-1.464;2022-12-19T00:56:18;99160.47;;;8.53;100.00
29839;BME280;18669;53.356;-1.464;2022-12-19T00:58:45;99152.28;;;8.37;100.00
29839;BME280;18669;53.356;-1.464;2022-12-19T01:01:14;99144.19;;;8.43;100.00
29839;BME280;18669;53.356;-1.464;2022-12-19T01:03:41;99143.72;;;8.32;100.00
29839;BME280;18669;53.356;-1.464;2022-12-19T01:06:08;99139.28;;;8.34;100.00
29839;BME280;18669;53.356;-1.464;2022-12-19T01:08:35;99134.84;;;8.36;100.00
29839;BME280;18669;53.356;-1.464;2022-12-19T01:11:01;99136.53;;;8.37;100.00
29839;BME280;18669;53.356;-1.464;2022-12-19T01:13:28;99132.38;;;8.57;100.00
29839;BME280;18669;53.356;-1.464;2022-12-19T01:15:55;99126.53;;;8.48;100.00
29839;BME280;18669;53.356;-1.464;2022-12-19T01:18:21;99125.31;;;8.59;100.00
29839;BME280;18669;53.356;-1.464;2022-12-19T01:20:48;99118.44;;;8.56;100.00
29839;BME280;18669;53.356;-1.464;2022-12-19T01:23:15;99117.38;;;8.84;100.00
29839;BME280;18669;53.356;-1.464;2022-12-19T01:25:42;99130.00;;;8.74;100.00
29839;BME280;18669;53.356;-1.464;2022-12-19T01:28:12;99127.19;;;8.79;100.00
29839;BME280;18669;53.356;-1.464;2022-12-19T01:30:40;99131.34;;;8.85;100.00
29839;BME280;18669;53.356;-1.464;2022-12-19T01:33:09;99125.72;;;8.95;100.00
29839;BME280;18669;53.356;-1.464;2022-12-19T01:35:38;99115.59;;;9.08;100.00
29839;BME280;18669;53.356;-1.464;2022-12-19T01:38:04;99124.41;;;9.06;100.00
29839;BME280;18669;53.356;-1.464;2022-12-19T01:40:31;99123.34;;;9.12;100.00
29839;BME280;18669;53.356;-1.464;2022-12-19T01:43:00;99105.94;;;9.31;100.00
29839;BME280;18669;53.356;-1.464;2022-12-19T01:45:29;99105.16;;;9.29;100.00
29839;BME280;18669;53.356;-1.464;2022-12-19T01:48:41;99103.75;;;9.43;100.00
29839;BME280;18669;53.356;-1.464;2022-12-19T01:51:17;99100.94;;;9.47;100.00
29839;BME280;18669;53.356;-1.464;2022-12-19T01:53:58;99100.63;;;9.55;100.00
29839;BME280;18669;53.356;-1.464;2022-12-19T01:56:28;99097.06;;;9.56;100.00
29839;BME280;18669;53.356;-1.464;2022-12-19T01:59:00;99096.78;;;9.64;100.00
29839;BME280;18669;53.356;-1.464;2022-12-19T02:01:28;99099.84;;;9.53;100.00
29839;BME280;18669;53.356;-1.464;2022-12-19T02:03:54;99100.06;;;9.69;100.00
29839;BME280;18669;53.356;-1.464;2022-12-19T02:06:21;99084.53;;;9.85;100.00
29839;BME280;18669;53.356;-1.464;2022-12-19T02:08:48;99084.38;;;9.67;100.00
29839;BME280;18669;53.356;-1.464;2022-12-19T02:11:14;99076.59;;;9.64;100.00
29839;BME280;18669;53.356;-1.464;2022-12-19T02:13:41;99074.72;;;9.68;100.00
29839;BME280;18669;53.356;-1.464;2022-12-19T02:16:25;99082.59;;;9.89;100.00
29839;BME280;18669;53.356;-1.464;2022-12-19T02:24:55;99079.84;;;9.92;100.00
29839;BME280;18669;53.356;-1.464;2022-12-19T02:30:34;99072.75;;;9.94;100.00
29839;BME280;18669;53.356;-1.464;2022-12-19T02:33:06;99073.34;;;10.00;100.00
29839;BME280;18669;53.356;-1.464;2022-12-19T02:35:52;99069.31;;;10.12;100.00
29839;BME280;18669;53.356;-1.464;2022-12-19T02:38:45;99064.13;;;10.11;100.00
29839;BME280;18669;53.356;-1.464;2022-12-19T02:41:28;99075.16;;;10.19;100.00
29839;BME280;18669;53.356;-1.464;2022-12-19T02:44:15;99067.28;;;10.19;100.00
29839;BME280;18669;53.356;-1.464;2022-12-19T02:46:43;99066.75;;;10.11;100.00
29839;BME280;18669;53.356;-1.464;2022-12-19T02:49:14;99070.84;;;10.18;100.00
29839;BME280;18669;53.356;-1.464;2022-12-19T02:51:40;99067.72;;;10.08;100.00
29839;BME280;18669;53.356;-1.464;2022-12-19T02:54:06;99056.69;;;10.41;100.00
29839;BME280;18669;53.356;-1.464;2022-12-19T02:56:36;99048.75;;;10.22;100.00
29839;BME280;18669;53.356;-1.464;2022-12-19T03:02:05;99054.91;;;10.42;100.00
29839;BME280;18669;53.356;-1.464;2022-12-19T03:04:58;99051.88;;;10.51;100.00
29839;BME280;18669;53.356;-1.464;2022-12-19T03:07:46;99047.69;;;10.66;100.00
29839;BME280;18669;53.356;-1.464;2022-12-19T03:10:26;99061.19;;;10.58;100.00
29839;BME280;18669;53.356;-1.464;2022-12-19T03:13:00;99039.97;;;10.62;100.00
29839;BME280;18669;53.356;-1.464;2022-12-19T03:15:28;99038.06;;;10.46;100.00
29839;BME280;18669;53.356;-1.464;2022-12-19T03:17:58;99044.63;;;10.56;100.00
29839;BME280;18669;53.356;-1.464;2022-12-19T03:23:12;99047.53;;;10.50;100.00
29839;BME280;18669;53.356;-1.464;2022-12-19T03:25:41;99040.16;;;10.58;100.00
29839;BME280;18669;53.356;-1.464;2022-12-19T03:28:11;99041.84;;;10.59;100.00
29839;BME280;18669;53.356;-1.464;2022-12-19T03:30:40;99051.94;;;10.69;100.00
29839;BME280;18669;53.356;-1.464;2022-12-19T03:33:09;99034.00;;;10.77;100.00
29839;BME280;18669;53.356;-1.464;2022-12-19T03:35:37;99041.41;;;10.69;100.00
29839;BME280;18669;53.356;-1.464;2022-12-19T03:38:04;99041.53;;;10.66;100.00
29839;BME280;18669;53.356;-1.464;2022-12-19T03:40:32;99049.66;;;10.80;100.00
29839;BME280;18669;53.356;-1.464;2022-12-19T03:43:05;99048.31;;;10.91;100.00
29839;BME280;18669;53.356;-1.464;2022-12-19T03:53:44;99059.91;;;10.86;100.00
29839;BME280;18669;53.356;-1.464;2022-12-19T03:56:21;99062.06;;;10.96;100.00
29839;BME280;18669;53.356;-1.464;2022-12-19T03:59:06;99054.97;;;10.98;100.00
29839;BME280;18669;53.356;-1.464;2022-12-19T04:01:35;99054.16;;;10.96;100.00
29839;BME280;18669;53.356;-1.464;2022-12-19T04:04:03;99052.50;;;10.95;100.00
29839;BME280;18669;53.356;-1.464;2022-12-19T04:06:32;99055.81;;;10.98;100.00
29839;BME280;18669;53.356;-1.464;2022-12-19T04:08:59;99054.81;;;11.01;100.00
29839;BME280;18669;53.356;-1.464;2022-12-19T04:11:29;99055.59;;;11.03;100.00
29839;BME280;18669;53.356;-1.464;2022-12-19T04:14:03;99044.91;;;11.06;100.00
29839;BME280;18669;53.356;-1.464;2022-12-19T04:16:53;99050.13;;;11.08;100.00
29839;BME280;18669;53.356;-1.464;2022-12-19T04:19:46;99063.44;;;11.04;100.00
29839;BME280;18669;53.356;-1.464;2022-12-19T04:22:36;99076.09;;;10.96;100.00
29839;BME280;18669;53.356;-1.464;2022-12-19T04:25:08;99077.81;;;10.97;100.00
29839;BME280;18669;53.356;-1.464;2022-12-19T04:27:37;99072.88;;;11.09;100.00
29839;BME280;18669;53.356;-1.464;2022-12-19T04:30:06;99069.63;;;11.03;100.00
29839;BME280;18669;53.356;-1.464;2022-12-19T04:32:34;99061.69;;;11.23;100.00
29839;BME280;18669;53.356;-1.464;2022-12-19T04:35:02;99066.66;;;11.29;100.00
29839;BME280;18669;53.356;-1.464;2022-12-19T04:37:28;99067.00;;;11.21;100.00
29839;BME280;18669;53.356;-1.464;2022-12-19T04:39:55;99066.09;;;11.22;100.00
29839;BME280;18669;53.356;-1.464;2022-12-19T04:42:21;99064.53;;;11.55;100.00
29839;BME280;18669;53.356;-1.464;2022-12-19T04:44:47;99079.59;;;11.33;100.00
29839;BME280;18669;53.356;-1.464;2022-12-19T04:47:14;99065.50;;;11.34;100.00
29839;BME280;18669;53.356;-1.464;2022-12-19T04:49:40;99057.31;;;11.58;100.00
29839;BME280;18669;53.356;-1.464;2022-12-19T04:52:06;99052.09;;;11.39;100.00
29839;BME280;18669;53.356;-1.464;2022-12-19T04:54:32;99059.94;;;11.58;100.00
29839;BME280;18669;53.356;-1.464;2022-12-19T04:56:58;99066.97;;;11.40;100.00
29839;BME280;18669;53.356;-1.464;2022-12-19T04:59:24;99059.09;;;11.58;100.00
29839;BME280;18669;53.356;-1.464;2022-12-19T05:01:49;99062.63;;;11.39;100.00
29839;BME280;18669;53.356;-1.464;2022-12-19T05:04:15;99052.66;;;11.63;100.00
29839;BME280;18669;53.356;-1.464;2022-12-19T05:06:42;99065.41;;;11.36;100.00
29839;BME280;18669;53.356;-1.464;2022-12-19T05:09:09;99057.88;;;11.65;100.00
29839;BME280;18669;53.356;-1.464;2022-12-19T05:11:35;99058.91;;;11.43;100.00
29839;BME280;18669;53.356;-1.464;2022-12-19T05:14:02;99051.13;;;11.42;100.00
29839;BME280;18669;53.356;-1.464;2022-12-19T05:16:28;99055.44;;;11.60;100.00
29839;BME280;18669;53.356;-1.464;2022-12-19T05:18:54;99061.16;;;11.51;100.00
29839;BME280;18669;53.356;-1.464;2022-12-19T05:21:21;99056.69;;;11.53;100.00
29839;BME280;18669;53.356;-1.464;2022-12-19T05:23:49;99059.94;;;11.58;100.00
29839;BME280;18669;53.356;-1.464;2022-12-19T05:26:16;99055.03;;;11.68;100.00
29839;BME280;18669;53.356;-1.464;2022-12-19T05:28:42;99052.66;;;11.63;100.00
29839;BME280;18669;53.356;-1.464;2022-12-19T05:31:12;99051.56;;;11.85;100.00
29839;BME280;18669;53.356;-1.464;2022-12-19T05:33:40;99050.66;;;11.69;100.00
29839;BME280;18669;53.356;-1.464;2022-12-19T05:36:07;99050.50;;;11.72;100.00
29839;BME280;18669;53.356;-1.464;2022-12-19T05:38:37;99049.25;;;11.79;100.00
29839;BME280;18669;53.356;-1.464;2022-12-19T05:41:08;99045.44;;;11.85;100.00
29839;BME280;18669;53.356;-1.464;2022-12-19T05:43:34;99050.97;;;11.80;100.00
29839;BME280;18669;53.356;-1.464;2022-12-19T05:46:03;99040.19;;;11.85;100.00
29839;BME280;18669;53.356;-1.464;2022-12-19T05:48:29;99035.47;;;11.74;100.00
29839;BME280;18669;53.356;-1.464;2022-12-19T05:50:56;99035.63;;;11.71;100.00
29839;BME280;18669;53.356;-1.464;2022-12-19T05:53:22;99042.34;;;11.76;100.00
29839;BME280;18669;53.356;-1.464;2022-12-19T05:55:48;99053.81;;;11.93;100.00
29839;BME280;18669;53.356;-1.464;2022-12-19T05:58:14;99056.44;;;11.75;100.00
29839;BME280;18669;53.356;-1.464;2022-12-19T06:00:40;99047.63;;;11.76;100.00
29839;BME280;18669;53.356;-1.464;2022-12-19T06:03:07;99047.63;;;11.76;100.00
29839;BME280;18669;53.356;-1.464;2022-12-19T06:05:35;99042.34;;;11.94;100.00
29839;BME280;18669;53.356;-1.464;2022-12-19T06:08:01;99045.91;;;11.75;100.00
29839;BME280;18669;53.356;-1.464;2022-12-19T06:10:27;99046.59;;;11.97;100.00
29839;BME280;18669;53.356;-1.464;2022-12-19T06:12:53;99040.44;;;11.80;100.00
29839;BME280;18669;53.356;-1.464;2022-12-19T06:15:20;99048.34;;;11.80;100.00
29839;BME280;18669;53.356;-1.464;2022-12-19T06:17:46;99039.38;;;12.18;100.00
29839;BME280;18669;53.356;-1.464;2022-12-19T06:20:12;99039.78;;;11.92;100.00
29839;BME280;18669;53.356;-1.464;2022-12-19T06:22:38;99038.56;;;12.00;100.00
29839;BME280;18669;53.356;-1.464;2022-12-19T06:25:05;99043.00;;;11.99;100.00
29839;BME280;18669;53.356;-1.464;2022-12-19T06:27:32;99036.53;;;12.05;100.00
29839;BME280;18669;53.356;-1.464;2022-12-19T06:29:58;99039.72;;;11.94;100.00
29839;BME280;18669;53.356;-1.464;2022-12-19T06:32:24;99044.91;;;12.13;100.00
29839;BME280;18669;53.356;-1.464;2022-12-19T06:34:50;99044.22;;;11.92;100.00
29839;BME280;18669;53.356;-1.464;2022-12-19T06:37:16;99030.09;;;12.11;100.00
29839;BME280;18669;53.356;-1.464;2022-12-19T06:39:43;99036.44;;;11.89;100.00
29839;BME280;18669;53.356;-1.464;2022-12-19T06:42:09;99039.72;;;11.94;100.00
29839;BME280;18669;53.356;-1.464;2022-12-19T06:44:49;99032.81;;;12.09;100.00
29839;BME280;18669;53.356;-1.464;2022-12-19T06:47:16;99026.06;;;12.03;100.00
29839;BME280;18669;53.356;-1.464;2022-12-19T06:49:42;99022.34;;;12.07;100.00
29839;BME280;18669;53.356;-1.464;2022-12-19T06:52:08;99032.25;;;12.20;100.00
29839;BME280;18669;53.356;-1.464;2022-12-19T06:54:34;99030.50;;;12.03;100.00
29839;BME280;18669;53.356;-1.464;2022-12-19T06:57:00;99026.97;;;12.20;100.00
29839;BME280;18669;53.356;-1.464;2022-12-19T06:59:27;99026.59;;;12.10;100.00
29839;BME280;18669;53.356;-1.464;2022-12-19T07:01:58;99021.41;;;12.08;100.00
29839;BME280;18669;53.356;-1.464;2022-12-19T07:06:57;99027.75;;;12.04;100.00
29839;BME280;18669;53.356;-1.464;2022-12-19T07:09:25;99028.63;;;12.05;100.00
29839;BME280;18669;53.356;-1.464;2022-12-19T07:11:52;99027.09;;;12.01;100.00
29839;BME280;18669;53.356;-1.464;2022-12-19T07:14:19;99035.09;;;11.99;100.00
29839;BME280;18669;53.356;-1.464;2022-12-19T07:16:47;99041.50;;;12.11;100.00
29839;BME280;18669;53.356;-1.464;2022-12-19T07:19:15;99033.03;;;12.04;100.00
29839;BME280;18669;53.356;-1.464;2022-12-19T07:21:41;99042.66;;;12.05;100.00
29839;BME280;18669;53.356;-1.464;2022-12-19T07:24:08;99038.91;;;12.09;100.00
29839;BME280;18669;53.356;-1.464;2022-12-19T07:26:36;99036.69;;;12.02;100.00
29839;BME280;18669;53.356;-1.464;2022-12-19T07:29:02;99030.25;;;12.07;100.00
29839;BME280;18669;53.356;-1.464;2022-12-19T07:31:28;99039.19;;;12.05;100.00
29839;BME280;18669;53.356;-1.464;2022-12-19T07:33:55;99032.03;;;12.07;100.00
29839;BME280;18669;53.356;-1.464;2022-12-19T07:36:21;99024.34;;;12.02;100.00
29839;BME280;18669;53.356;-1.464;2022-12-19T07:38:47;99026.97;;;12.20;100.00
29839;BME280;18669;53.356;-1.464;2022-12-19T07:41:14;99019.03;;;12.04;100.00
29839;BME280;18669;53.356;-1.464;2022-12-19T07:43:40;99021.19;;;12.13;100.00
29839;BME280;18669;53.356;-1.464;2022-12-19T07:46:07;99008.47;;;12.04;100.00
29839;BME280;18669;53.356;-1.464;2022-12-19T07:48:34;99007.38;;;12.08;100.00
29839;BME280;18669;53.356;-1.464;2022-12-19T07:51:03;99020.94;;;12.34;100.00
29839;BME280;18669;53.356;-1.464;2022-12-19T07:53:30;99022.88;;;12.14;100.00
29839;BME280;18669;53.356;-1.464;2022-12-19T07:55:56;99023.88;;;12.12;100.00
29839;BME280;18669;53.356;-1.464;2022-12-19T07:58:24;99020.72;;;12.05;100.00
29839;BME280;18669;53.356;-1.464;2022-12-19T08:00:57;99020.75;;;12.21;100.00
29839;BME280;18669;53.356;-1.464;2022-12-19T08:03:26;99020.56;;;12.08;100.00
29839;BME280;18669;53.356;-1.464;2022-12-19T08:05:58;99029.34;;;12.24;100.00
29839;BME280;18669;53.356;-1.464;2022-12-19T08:08:26;99029.84;;;12.15;100.00
29839;BME280;18669;53.356;-1.464;2022-12-19T08:10:53;99024.66;;;12.14;100.00
29839;BME280;18669;53.356;-1.464;2022-12-19T08:13:19;99026.97;;;12.20;100.00
29839;BME280;18669;53.356;-1.464;2022-12-19T08:15:45;99021.56;;;12.39;100.00
29839;BME280;18669;53.356;-1.464;2022-12-19T08:18:12;99035.16;;;12.31;100.00
29839;BME280;18669;53.356;-1.464;2022-12-19T08:20:38;99049.91;;;12.51;100.00
29839;BME280;18669;53.356;-1.464;2022-12-19T08:23:04;99048.19;;;12.34;100.00
29839;BME280;18669;53.356;-1.464;2022-12-19T08:25:30;99038.47;;;12.35;100.00
29839;BME280;18669;53.356;-1.464;2022-12-19T08:27:57;99044.53;;;12.37;100.00
29839;BME280;18669;53.356;-1.464;2022-12-19T08:30:24;99042.50;;;12.42;100.00
29839;BME280;18669;53.356;-1.464;2022-12-19T08:32:50;99044.78;;;12.32;100.00
29839;BME280;18669;53.356;-1.464;2022-12-19T09:37:52;99052.97;;;12.60;100.00
29839;BME280;18669;53.356;-1.464;2022-12-19T09:40:18;99044.97;;;12.61;100.00
29839;BME280;18669;53.356;-1.464;2022-12-19T09:43:18;99030.09;;;12.76;100.00
29839;BME280;18669;53.356;-1.464;2022-12-19T09:48:14;99023.88;;;12.77;100.00
29839;BME280;18669;53.356;-1.464;2022-12-19T09:50:58;99010.59;;;12.79;100.00
29839;BME280;18669;53.356;-1.464;2022-12-19T09:53:34;99016.41;;;12.86;100.00
29839;BME280;18669;53.356;-1.464;2022-12-19T09:56:05;99007.44;;;12.88;100.00
29839;BME280;18669;53.356;-1.464;2022-12-19T09:58:42;99014.75;;;12.83;100.00
29839;BME280;18669;53.356;-1.464;2022-12-19T10:01:20;99016.63;;;12.81;100.00
29839;BME280;18669;53.356;-1.464;2022-12-19T10:04:20;99032.91;;;12.89;100.00
29839;BME280;18669;53.356;-1.464;2022-12-19T10:06:50;99029.06;;;12.79;100.00
29839;BME280;18669;53.356;-1.464;2022-12-19T10:09:18;99034.69;;;12.89;100.00
29839;BME280;18669;53.356;-1.464;2022-12-19T10:14:59;99044.13;;;12.93;100.00
29839;BME280;18669;53.356;-1.464;2022-12-19T10:20:24;99049.94;;;13.00;100.00
29839;BME280;18669;53.356;-1.464;2022-12-19T10:34:42;99031.09;;;12.90;100.00
29839;BME280;18669;53.356;-1.464;2022-12-19T10:42:14;99017.22;;;13.02;100.00
29839;BME280;18669;53.356;-1.464;2022-12-19T10:44:45;99006.66;;;12.86;100.00
29839;BME280;18669;53.356;-1.464;2022-12-19T10:47:15;99002.94;;;12.90;100.00
29839;BME280;18669;53.356;-1.464;2022-12-19T10:49:42;98993.81;;;12.80;100.00
29839;BME280;18669;53.356;-1.464;2022-12-19T10:52:09;98999.78;;;12.83;100.00
29839;BME280;18669;53.356;-1.464;2022-12-19T11:00:05;98991.69;;;13.03;100.00
29839;BME280;18669;53.356;-1.464;2022-12-19T11:02:41;98981.81;;;12.90;100.00
29839;BME280;18669;53.356;-1.464;2022-12-19T11:05:27;98993.72;;;12.97;100.00
29839;BME280;18669;53.356;-1.464;2022-12-19T11:10:46;98980.25;;;13.02;100.00
29839;BME280;18669;53.356;-1.464;2022-12-19T11:16:07;98974.69;;;13.07;100.00
29839;BME280;18669;53.356;-1.464;2022-12-19T11:18:39;98979.03;;;13.08;100.00
29839;BME280;18669;53.356;-1.464;2022-12-19T11:26:41;98954.28;;;13.25;100.00
29839;BME280;18669;53.356;-1.464;2022-12-19T11:29:36;98959.69;;;13.23;100.00
29839;BME280;18669;53.356;-1.464;2022-12-19T11:32:30;98952.63;;;13.24;100.00
29839;BME280;18669;53.356;-1.464;2022-12-19T11:35:10;98946.66;;;13.20;100.00
29839;BME280;18669;53.356;-1.464;2022-12-19T11:37:55;98948.94;;;13.26;100.00
29839;BME280;18669;53.356;-1.464;2022-12-19T11:40:32;98952.13;;;13.17;100.00
29839;BME280;18669;53.356;-1.464;2022-12-19T11:43:10;98945.91;;;13.18;100.00
29839;BME280;18669;53.356;-1.464;2022-12-19T11:45:50;98957.41;;;13.17;100.00
29839;BME280;18669;53.356;-1.464;2022-12-19T11:48:33;98947.41;;;13.22;100.00
29839;BME280;18669;53.356;-1.464;2022-12-19T11:51:31;98928.75;;;13.25;100.00
29839;BME280;18669;53.356;-1.464;2022-12-19T11:54:12;98927.22;;;13.21;100.00
29839;BME280;18669;53.356;-1.464;2022-12-19T11:56:40;98929.44;;;12.98;100.00
29839;BME280;18669;53.356;-1.464;2022-12-19T11:59:15;98931.34;;;13.11;100.00
29839;BME280;18669;53.356;-1.464;2022-12-19T12:01:56;98921.53;;;13.13;100.00
29839;BME280;18669;53.356;-1.464;2022-12-19T12:07:19;98912.66;;;13.00;100.00
29839;BME280;18669;53.356;-1.464;2022-12-19T12:12:32;98917.78;;;13.17;100.00
29839;BME280;18669;53.356;-1.464;2022-12-19T12:15:16;98906.44;;;13.01;100.00
29839;BME280;18669;53.356;-1.464;2022-12-19T12:20:32;98889.09;;;13.11;100.00
29839;BME280;18669;53.356;-1.464;2022-12-19T12:23:20;98889.03;;;13.12;100.00
29839;BME280;18669;53.356;-1.464;2022-12-19T12:25:56;98887.91;;;13.17;100.00
29839;BME280;18669;53.356;-1.464;2022-12-19T12:32:37;98887.81;;;13.18;100.00
29839;BME280;18669;53.356;-1.464;2022-12-19T12:43:43;98854.53;;;13.30;100.00
29839;BME280;18669;53.356;-1.464;2022-12-19T12:46:16;98859.44;;;13.22;100.00
29839;BME280;18669;53.356;-1.464;2022-12-19T12:49:34;98858.22;;;13.27;100.00
29839;BME280;18669;53.356;-1.464;2022-12-19T12:51:37;98861.31;;;13.20;100.00
29839;BME280;18669;53.356;-1.464;2022-12-19T12:54:05;98846.03;;;13.25;100.00
29839;BME280;18669;53.356;-1.464;2022-12-19T12:56:35;98836.91;;;13.31;100.00
29839;BME280;18669;53.356;-1.464;2022-12-19T12:59:06;98833.50;;;13.28;100.00
29839;BME280;18669;53.356;-1.464;2022-12-19T13:01:49;98847.09;;;13.37;100.00
29839;BME280;18669;53.356;-1.464;2022-12-19T13:04:33;98842.00;;;13.34;100.00
29839;BME280;18669;53.356;-1.464;2022-12-19T13:07:18;98849.34;;;13.28;100.00
29839;BME280;18669;53.356;-1.464;2022-12-19T13:09:52;98845.41;;;13.36;100.00
29839;BME280;18669;53.356;-1.464;2022-12-19T13:12:26;98843.69;;;13.35;100.00
29839;BME280;18669;53.356;-1.464;2022-12-19T13:22:41;98834.66;;;13.39;100.00
29839;BME280;18669;53.356;-1.464;2022-12-19T13:25:48;98831.75;;;13.43;100.00
29839;BME280;18669;53.356;-1.464;2022-12-19T13:28:38;98822.94;;;13.43;100.00
29839;BME280;18669;53.356;-1.464;2022-12-19T13:33:43;98810.69;;;13.56;100.00
29839;BME280;18669;53.356;-1.464;2022-12-19T13:39:32;98789.19;;;13.63;100.00
29839;BME280;18669;53.356;-1.464;2022-12-19T13:42:24;98790.31;;;13.58;100.00
29839;BME280;18669;53.356;-1.464;2022-12-19T13:45:27;98795.41;;;13.62;100.00
29839;BME280;18669;53.356;-1.464;2022-12-19T13:47:57;98795.13;;;13.52;100.00
29839;BME280;18669;53.356;-1.464;2022-12-19T13:50:35;98777.28;;;13.55;100.00
29839;BME280;18669;53.356;-1.464;2022-12-19T13:53:17;98788.53;;;13.59;100.00
29839;BME280;18669;53.356;-1.464;2022-12-19T13:55:44;98773.25;;;13.50;100.00
29839;BME280;18669;53.356;-1.464;2022-12-19T13:58:25;98804.56;;;13.56;100.00
29839;BME280;18669;53.356;-1.464;2022-12-19T14:00:54;98787.00;;;13.40;100.00
29839;BME280;18669;53.356;-1.464;2022-12-19T14:03:32;98782.88;;;13.51;100.00
29839;BME280;18669;53.356;-1.464;2022-12-19T14:09:05;98805.72;;;13.52;100.00
29839;BME280;18669;53.356;-1.464;2022-12-19T14:11:41;98796.03;;;13.65;100.00
29839;BME280;18669;53.356;-1.464;2022-12-19T14:14:15;98805.78;;;13.65;100.00
29839;BME280;18669;53.356;-1.464;2022-12-19T14:17:27;98799.63;;;13.64;100.00
29839;BME280;18669;53.356;-1.464;2022-12-19T14:19:54;98811.19;;;13.49;100.00
29839;BME280;18669;53.356;-1.464;2022-12-19T14:22:22;98804.09;;;13.64;100.00
29839;BME280;18669;53.356;-1.464;2022-12-19T14:24:54;98800.56;;;13.63;100.00
29839;BME280;18669;53.356;-1.464;2022-12-19T14:29:54;98802.84;;;13.40;100.00
29839;BME280;18669;53.356;-1.464;2022-12-19T14:32:21;98802.69;;;13.43;100.00
29839;BME280;18669;53.356;-1.464;2022-12-19T14:34:48;98797.28;;;13.45;100.00
29839;BME280;18669;53.356;-1.464;2022-12-19T14:37:32;98807.66;;;13.48;100.00
29839;BME280;18669;53.356;-1.464;2022-12-19T14:40:17;98800.03;;;13.43;100.00
29839;BME280;18669;53.356;-1.464;2022-12-19T14:42:44;98800.09;;;13.27;100.00
29839;BME280;18669;53.356;-1.464;2022-12-19T14:45:36;98802.00;;;13.40;100.00
29839;BME280;18669;53.356;-1.464;2022-12-19T14:48:25;98802.31;;;13.50;100.00
29839;BME280;18669;53.356;-1.464;2022-12-19T14:51:12;98793.06;;;13.57;100.00
29839;BME280;18669;53.356;-1.464;2022-12-19T14:56:32;98793.13;;;13.55;100.00
29839;BME280;18669;53.356;-1.464;2022-12-19T14:59:00;98809.66;;;13.59;100.00
29839;BME280;18669;53.356;-1.464;2022-12-19T15:01:31;98814.97;;;13.59;100.00
29839;BME280;18669;53.356;-1.464;2022-12-19T15:04:06;98819.19;;;13.47;100.00
29839;BME280;18669;53.356;-1.464;2022-12-19T15:06:40;98821.44;;;13.39;100.00
29839;BME280;18669;53.356;-1.464;2022-12-19T15:09:11;98813.03;;;13.32;100.00
29839;BME280;18669;53.356;-1.464;2022-12-19T15:11:44;98823.69;;;13.31;100.00
29839;BME280;18669;53.356;-1.464;2022-12-19T15:14:38;98826.69;;;13.24;100.00
29839;BME280;18669;53.356;-1.464;2022-12-19T15:17:23;98837.44;;;13.21;100.00
29839;BME280;18669;53.356;-1.464;2022-12-19T15:19:50;98831.88;;;13.11;100.00
29839;BME280;18669;53.356;-1.464;2022-12-19T15:22:18;98846.78;;;13.12;100.00
29839;BME280;18669;53.356;-1.464;2022-12-19T15:24:45;98832.47;;;13.17;100.00
29839;BME280;18669;53.356;-1.464;2022-12-19T15:27:14;98826.41;;;13.29;100.00
29839;BME280;18669;53.356;-1.464;2022-12-19T15:29:41;98827.94;;;13.33;100.00
29839;BME280;18669;53.356;-1.464;2022-12-19T15:32:17;98834.38;;;13.43;100.00
29839;BME280;18669;53.356;-1.464;2022-12-19T15:34:44;98832.44;;;13.31;100.00
29839;BME280;18669;53.356;-1.464;2022-12-19T15:37:14;98835.97;;;13.46;100.00
29839;BME280;18669;53.356;-1.464;2022-12-19T15:39:42;98828.34;;;13.41;100.00
29839;BME280;18669;53.356;-1.464;2022-12-19T15:42:19;98824.09;;;13.53;100.00
29839;BME280;18669;53.356;-1.464;2022-12-19T15:44:47;98833.50;;;13.43;100.00
29839;BME280;18669;53.356;-1.464;2022-12-19T15:47:35;98840.50;;;13.58;100.00
29839;BME280;18669;53.356;-1.464;2022-12-19T15:50:20;98830.06;;;13.57;100.00
29839;BME280;18669;53.356;-1.464;2022-12-19T15:52:46;98817.84;;;13.40;100.00
29839;BME280;18669;53.356;-1.464;2022-12-19T15:55:17;98825.91;;;13.53;100.00
29839;BME280;18669;53.356;-1.464;2022-12-19T15:57:50;98827.22;;;13.46;100.00
29839;BME280;18669;53.356;-1.464;2022-12-19T16:00:21;98819.38;;;13.44;100.00
29839;BME280;18669;53.356;-1.464;2022-12-19T16:02:49;98832.44;;;13.31;100.00